sensor_id;sensor_type;location;lat;lon;timestamp;pressure;altitude;pressure_sealevel;temperature;humidity
37634;BME280;32048;49.902;22.508;2023-02-20T00:01:27;99021.09;;;-0.19;100.00
37634;BME280;32048;49.902;22.508;2023-02-20T00:03:55;99015.03;;;-0.23;100.00
37634;BME280;32048;49.902;22.508;2023-02-20T00:06:22;99008.13;;;-0.22;100.00
37634;BME280;32048;49.902;22.508;2023-02-20T00:08:49;99010.72;;;-0.24;100.00
37634;BME280;32048;49.902;22.508;2023-02-20T00:11:16;99009.88;;;-0.24;100.00
37634;BME280;32048;49.902;22.508;2023-02-20T00:13:47;99016.81;;;-0.25;100.00
37634;BME280;32048;49.902;22.508;2023-02-20T00:16:15;99019.41;;;-0.26;100.00
37634;BME280;32048;49.902;22.508;2023-02-20T00:18:43;99022.00;;;-0.26;100.00
37634;BME280;32048;49.902;22.508;2023-02-20T00:21:10;99019.41;;;-0.31;100.00
37634;BME280;32048;49.902;22.508;2023-02-20T00:23:37;99016.78;;;-0.29;100.00
37634;BME280;32048;49.902;22.508;2023-02-20T00:26:08;99014.22;;;-0.34;100.00
37634;BME280;32048;49.902;22.508;2023-02-20T00:28:39;99024.63;;;-0.35;100.00
37634;BME280;32048;49.902;22.508;2023-02-20T00:31:11;99013.38;;;-0.39;100.00
37634;BME280;32048;49.902;22.508;2023-02-20T00:33:39;99018.59;;;-0.37;100.00
37634;BME280;32048;49.902;22.508;2023-02-20T00:36:07;99018.56;;;-0.40;100.00
37634;BME280;32048;49.902;22.508;2023-02-20T00:38:34;99020.34;;;-0.44;100.00
37634;BME280;32048;49.902;22.508;2023-02-20T00:41:01;99032.41;;;-0.43;100.00
37634;BME280;32048;49.902;22.508;2023-02-20T00:43:28;99022.03;;;-0.43;100.00
37634;BME280;32048;49.902;22.508;2023-02-20T00:45:57;99037.63;;;-0.45;100.00
37634;BME280;32048;49.902;22.508;2023-02-20T00:48:24;99021.19;;;-0.44;100.00
37634;BME280;32048;49.902;22.508;2023-02-20T00:50:51;99029.00;;;-0.47;100.00
37634;BME280;32048;49.902;22.508;2023-02-20T00:53:18;99029.84;;;-0.46;100.00
37634;BME280;32048;49.902;22.508;2023-02-20T00:55:45;99027.28;;;-0.49;100.00
37634;BME280;32048;49.902;22.508;2023-02-20T00:58:12;99035.91;;;-0.52;100.00
37634;BME280;32048;49.902;22.508;2023-02-20T01:00:39;99031.59;;;-0.51;100.00
37634;BME280;32048;49.902;22.508;2023-02-20T01:03:06;99029.00;;;-0.54;100.00
37634;BME280;32048;49.902;22.508;2023-02-20T01:05:33;99020.34;;;-0.52;100.00
37634;BME280;32048;49.902;22.508;2023-02-20T01:08:00;99017.78;;;-0.53;100.00
37634;BME280;32048;49.902;22.508;2023-02-20T01:10:27;99020.38;;;-0.53;100.00
37634;BME280;32048;49.902;22.508;2023-02-20T01:12:54;99027.28;;;-0.55;100.00
37634;BME280;32048;49.902;22.508;2023-02-20T01:15:21;99034.19;;;-0.54;100.00
37634;BME280;32048;49.902;22.508;2023-02-20T01:17:48;99034.19;;;-0.54;100.00
37634;BME280;32048;49.902;22.508;2023-02-20T01:20:15;99031.59;;;-0.54;100.00
37634;BME280;32048;49.902;22.508;2023-02-20T01:22:42;99033.31;;;-0.56;100.00
37634;BME280;32048;49.902;22.508;2023-02-20T01:25:09;99026.41;;;-0.59;100.00
37634;BME280;32048;49.902;22.508;2023-02-20T01:27:37;99029.88;;;-0.61;100.00
37634;BME280;32048;49.902;22.508;2023-02-20T01:30:04;99028.19;;;-0.63;100.00
37634;BME280;32048;49.902;22.508;2023-02-20T01:32:32;99028.19;;;-0.63;100.00
37634;BME280;32048;49.902;22.508;2023-02-20T01:34:59;99025.56;;;-0.59;100.00
37634;BME280;32048;49.902;22.508;2023-02-20T01:37:26;99030.75;;;-0.59;100.00
37634;BME280;32048;49.902;22.508;2023-02-20T01:39:53;99042.84;;;-0.58;100.00
37634;BME280;32048;49.902;22.508;2023-02-20T01:42:23;99036.78;;;-0.59;100.00
37634;BME280;32048;49.902;22.508;2023-02-20T01:44:50;99034.22;;;-0.57;100.00
37634;BME280;32048;49.902;22.508;2023-02-20T01:47:20;99041.09;;;-0.55;100.00
37634;BME280;32048;49.902;22.508;2023-02-20T01:49:51;99040.25;;;-0.55;100.00
37634;BME280;32048;49.902;22.508;2023-02-20T01:55:23;99027.28;;;-0.54;100.00
37634;BME280;32048;49.902;22.508;2023-02-20T02:00:40;99026.41;;;-0.53;100.00
37634;BME280;32048;49.902;22.508;2023-02-20T02:03:13;99024.69;;;-0.49;100.00
37634;BME280;32048;49.902;22.508;2023-02-20T02:05:45;99025.53;;;-0.49;100.00
37634;BME280;32048;49.902;22.508;2023-02-20T02:08:14;99021.19;;;-0.44;100.00
37634;BME280;32048;49.902;22.508;2023-02-20T02:11:00;99014.25;;;-0.43;100.00
37634;BME280;32048;49.902;22.508;2023-02-20T02:13:32;99001.28;;;-0.38;100.00
37634;BME280;32048;49.902;22.508;2023-02-20T02:21:58;99000.44;;;-0.36;100.00
37634;BME280;32048;49.902;22.508;2023-02-20T02:27:38;99000.38;;;-0.30;100.00
37634;BME280;32048;49.902;22.508;2023-02-20T02:42:04;98996.88;;;-0.18;100.00
37634;BME280;32048;49.902;22.508;2023-02-20T02:50:02;99023.63;;;-0.11;100.00
37634;BME280;32048;49.902;22.508;2023-02-20T02:52:31;99034.03;;;-0.10;100.00
37634;BME280;32048;49.902;22.508;2023-02-20T02:55:19;99027.97;;;-0.04;100.00
37634;BME280;32048;49.902;22.508;2023-02-20T02:57:48;99029.66;;;-0.03;100.00
37634;BME280;32048;49.902;22.508;2023-02-20T03:00:16;99030.53;;;0.01;100.00
37634;BME280;32048;49.902;22.508;2023-02-20T03:06:02;99035.72;;;-0.01;100.00
37634;BME280;32048;49.902;22.508;2023-02-20T03:11:27;99033.13;;;-0.01;100.00
37634;BME280;32048;49.902;22.508;2023-02-20T03:14:05;99023.59;;;0.03;100.00
37634;BME280;32048;49.902;22.508;2023-02-20T03:17:38;99019.22;;;0.06;100.00
37634;BME280;32048;49.902;22.508;2023-02-20T03:20:10;99015.78;;;0.07;100.00
37634;BME280;32048;49.902;22.508;2023-02-20T03:22:51;99010.59;;;0.07;100.00
37634;BME280;32048;49.902;22.508;2023-02-20T03:25:25;99010.56;;;0.10;100.00
37634;BME280;32048;49.902;22.508;2023-02-20T03:28:10;99006.22;;;0.12;100.00
37634;BME280;32048;49.902;22.508;2023-02-20T03:33:16;99005.34;;;0.16;100.00
37634;BME280;32048;49.902;22.508;2023-02-20T03:36:08;99004.47;;;0.13;100.00
37634;BME280;32048;49.902;22.508;2023-02-20T03:39:03;98998.44;;;0.12;100.00
37634;BME280;32048;49.902;22.508;2023-02-20T03:41:51;99007.06;;;0.14;100.00
37634;BME280;32048;49.902;22.508;2023-02-20T03:44:38;99008.78;;;0.18;100.00
37634;BME280;32048;49.902;22.508;2023-02-20T03:47:06;99012.28;;;0.16;100.00
37634;BME280;32048;49.902;22.508;2023-02-20T03:49:38;99010.53;;;0.16;100.00
37634;BME280;32048;49.902;22.508;2023-02-20T03:52:06;99001.84;;;0.17;100.00
37634;BME280;32048;49.902;22.508;2023-02-20T03:54:34;99003.59;;;0.18;100.00
37634;BME280;32048;49.902;22.508;2023-02-20T03:57:05;99001.84;;;0.17;100.00
37634;BME280;32048;49.902;22.508;2023-02-20T03:59:35;98994.94;;;0.16;100.00
37634;BME280;32048;49.902;22.508;2023-02-20T04:02:12;98984.53;;;0.18;100.00
37634;BME280;32048;49.902;22.508;2023-02-20T04:04:47;98994.03;;;0.22;100.00
37634;BME280;32048;49.902;22.508;2023-02-20T04:07:23;98994.91;;;0.23;100.00
37634;BME280;32048;49.902;22.508;2023-02-20T04:09:53;98981.09;;;0.20;100.00
37634;BME280;32048;49.902;22.508;2023-02-20T04:12:28;98983.66;;;0.24;100.00
37634;BME280;32048;49.902;22.508;2023-02-20T04:14:57;98986.25;;;0.22;100.00
37634;BME280;32048;49.902;22.508;2023-02-20T04:17:30;98984.53;;;0.19;100.00
37634;BME280;32048;49.902;22.508;2023-02-20T04:19:58;98980.22;;;0.18;100.00
37634;BME280;32048;49.902;22.508;2023-02-20T04:22:28;98986.28;;;0.17;100.00
37634;BME280;32048;49.902;22.508;2023-02-20T04:24:59;98985.41;;;0.18;100.00
37634;BME280;32048;49.902;22.508;2023-02-20T04:27:29;98991.47;;;0.17;100.00
37634;BME280;32048;49.902;22.508;2023-02-20T04:29:57;98993.25;;;0.14;100.00
37634;BME280;32048;49.902;22.508;2023-02-20T04:32:24;98982.84;;;0.12;100.00
37634;BME280;32048;49.902;22.508;2023-02-20T04:34:51;98977.66;;;0.12;100.00
37634;BME280;32048;49.902;22.508;2023-02-20T04:37:18;98973.31;;;0.14;100.00
37634;BME280;32048;49.902;22.508;2023-02-20T04:39:46;98975.06;;;0.12;100.00
37634;BME280;32048;49.902;22.508;2023-02-20T04:42:14;98964.69;;;0.12;100.00
37634;BME280;32048;49.902;22.508;2023-02-20T04:44:41;98975.91;;;0.14;100.00
37634;BME280;32048;49.902;22.508;2023-02-20T04:47:15;98967.28;;;0.11;100.00
37634;BME280;32048;49.902;22.508;2023-02-20T04:49:42;98966.41;;;0.09;100.00
37634;BME280;32048;49.902;22.508;2023-02-20T04:52:10;98970.78;;;0.04;100.00
37634;BME280;32048;49.902;22.508;2023-02-20T04:54:37;98966.47;;;-0.01;100.00
37634;BME280;32048;49.902;22.508;2023-02-20T04:57:04;98965.59;;;0.02;100.00
37634;BME280;32048;49.902;22.508;2023-02-20T04:59:31;98958.72;;;-0.05;100.00
37634;BME280;32048;49.902;22.508;2023-02-20T05:01:58;98954.41;;;-0.06;100.00
37634;BME280;32048;49.902;22.508;2023-02-20T05:04:27;98946.63;;;-0.09;100.00
37634;BME280;32048;49.902;22.508;2023-02-20T05:06:55;98962.19;;;-0.06;100.00
37634;BME280;32048;49.902;22.508;2023-02-20T05:09:23;98955.28;;;-0.06;100.00
37634;BME280;32048;49.902;22.508;2023-02-20T05:11:50;98952.72;;;-0.09;100.00
37634;BME280;32048;49.902;22.508;2023-02-20T05:14:17;98950.06;;;-0.06;100.00
37634;BME280;32048;49.902;22.508;2023-02-20T05:16:45;98950.06;;;-0.01;100.00
37634;BME280;32048;49.902;22.508;2023-02-20T05:19:13;98956.97;;;0.00;100.00
37634;BME280;32048;49.902;22.508;2023-02-20T05:21:42;98952.63;;;-0.03;100.00
37634;BME280;32048;49.902;22.508;2023-02-20T05:24:29;98956.13;;;-0.05;100.00
37634;BME280;32048;49.902;22.508;2023-02-20T05:26:56;98955.31;;;-0.09;100.00
37634;BME280;32048;49.902;22.508;2023-02-20T05:29:24;98949.22;;;-0.09;100.00
37634;BME280;32048;49.902;22.508;2023-02-20T05:31:51;98951.81;;;-0.09;100.00
37634;BME280;32048;49.902;22.508;2023-02-20T05:34:18;98951.81;;;-0.08;100.00
37634;BME280;32048;49.902;22.508;2023-02-20T05:36:48;98956.16;;;-0.10;100.00
37634;BME280;32048;49.902;22.508;2023-02-20T05:39:15;98956.16;;;-0.11;100.00
37634;BME280;32048;49.902;22.508;2023-02-20T05:41:43;98959.63;;;-0.11;100.00
37634;BME280;32048;49.902;22.508;2023-02-20T05:44:10;98966.50;;;-0.04;100.00
37634;BME280;32048;49.902;22.508;2023-02-20T05:46:39;98961.25;;;0.04;100.00
37634;BME280;32048;49.902;22.508;2023-02-20T05:49:08;98963.81;;;0.10;99.77
37634;BME280;32048;49.902;22.508;2023-02-20T05:51:35;98964.63;;;0.22;100.00
37634;BME280;32048;49.902;22.508;2023-02-20T05:54:03;98966.22;;;0.41;100.00
37634;BME280;32048;49.902;22.508;2023-02-20T05:56:31;98960.81;;;0.64;98.76
37634;BME280;32048;49.902;22.508;2023-02-20T05:58:59;98963.25;;;0.84;97.44
37634;BME280;32048;49.902;22.508;2023-02-20T06:01:29;98974.31;;;1.03;97.56
37634;BME280;32048;49.902;22.508;2023-02-20T06:03:57;98975.72;;;1.33;95.66
37634;BME280;32048;49.902;22.508;2023-02-20T06:06:33;98992.81;;;1.56;94.35
37634;BME280;32048;49.902;22.508;2023-02-20T06:09:01;98982.94;;;1.84;91.96
37634;BME280;32048;49.902;22.508;2023-02-20T06:11:29;99000.97;;;1.98;90.64
37634;BME280;32048;49.902;22.508;2023-02-20T06:13:56;98996.28;;;2.21;90.47
37634;BME280;32048;49.902;22.508;2023-02-20T06:16:26;99004.50;;;2.54;88.96
37634;BME280;32048;49.902;22.508;2023-02-20T06:18:54;98999.69;;;2.82;87.17
37634;BME280;32048;49.902;22.508;2023-02-20T06:21:23;99007.25;;;2.98;86.55
37634;BME280;32048;49.902;22.508;2023-02-20T06:23:51;99001.97;;;3.02;84.79
37634;BME280;32048;49.902;22.508;2023-02-20T06:26:20;99002.50;;;3.21;84.69
37634;BME280;32048;49.902;22.508;2023-02-20T06:28:47;99020.44;;;3.38;82.39
37634;BME280;32048;49.902;22.508;2023-02-20T06:31:25;99007.84;;;3.60;81.40
37634;BME280;32048;49.902;22.508;2023-02-20T06:33:53;99000.06;;;4.01;79.64
37634;BME280;32048;49.902;22.508;2023-02-20T06:36:23;98997.75;;;4.26;76.55
37634;BME280;32048;49.902;22.508;2023-02-20T06:38:50;99013.38;;;4.29;76.61
37634;BME280;32048;49.902;22.508;2023-02-20T06:41:18;98993.31;;;4.29;76.03
37634;BME280;32048;49.902;22.508;2023-02-20T06:43:45;99010.31;;;4.49;75.82
37634;BME280;32048;49.902;22.508;2023-02-20T06:46:12;99002.00;;;4.69;74.32
37634;BME280;32048;49.902;22.508;2023-02-20T06:48:48;99011.91;;;4.92;73.67
37634;BME280;32048;49.902;22.508;2023-02-20T06:51:19;98998.84;;;5.25;70.95
37634;BME280;32048;49.902;22.508;2023-02-20T06:53:47;99017.50;;;5.45;69.59
37634;BME280;32048;49.902;22.508;2023-02-20T06:56:18;99015.38;;;5.58;68.51
37634;BME280;32048;49.902;22.508;2023-02-20T06:58:46;99021.16;;;5.71;66.75
37634;BME280;32048;49.902;22.508;2023-02-20T07:01:18;99011.94;;;5.87;66.43
37634;BME280;32048;49.902;22.508;2023-02-20T07:03:46;99013.41;;;6.27;65.84
37634;BME280;32048;49.902;22.508;2023-02-20T07:06:17;99008.00;;;6.33;62.31
37634;BME280;32048;49.902;22.508;2023-02-20T07:08:43;99000.75;;;6.41;62.40
37634;BME280;32048;49.902;22.508;2023-02-20T07:11:11;99008.00;;;6.33;61.28
37634;BME280;32048;49.902;22.508;2023-02-20T07:13:39;99004.38;;;6.37;62.01
37634;BME280;32048;49.902;22.508;2023-02-20T07:16:06;99001.94;;;6.31;61.66
37634;BME280;32048;49.902;22.508;2023-02-20T07:18:33;98988.81;;;6.31;61.09
37634;BME280;32048;49.902;22.508;2023-02-20T07:21:01;99003.72;;;6.31;62.66
37634;BME280;32048;49.902;22.508;2023-02-20T07:23:28;99004.19;;;6.70;62.91
37634;BME280;32048;49.902;22.508;2023-02-20T07:25:55;99012.84;;;7.27;58.99
37634;BME280;32048;49.902;22.508;2023-02-20T07:28:22;98999.09;;;7.44;55.87
37634;BME280;32048;49.902;22.508;2023-02-20T07:30:49;98992.34;;;7.37;56.75
37634;BME280;32048;49.902;22.508;2023-02-20T07:33:17;98998.50;;;7.61;57.41
37634;BME280;32048;49.902;22.508;2023-02-20T07:35:45;98999.69;;;8.01;55.57
37634;BME280;32048;49.902;22.508;2023-02-20T07:38:12;98992.66;;;8.47;53.80
37634;BME280;32048;49.902;22.508;2023-02-20T07:40:40;98989.94;;;8.92;50.49
37634;BME280;32048;49.902;22.508;2023-02-20T07:43:07;98985.00;;;9.05;49.11
37634;BME280;32048;49.902;22.508;2023-02-20T07:45:34;98985.41;;;9.16;50.11
37634;BME280;32048;49.902;22.508;2023-02-20T07:48:01;98986.66;;;8.65;49.12
37634;BME280;32048;49.902;22.508;2023-02-20T07:50:28;99003.13;;;8.25;50.38
37634;BME280;32048;49.902;22.508;2023-02-20T07:52:55;98994.34;;;8.02;51.66
37634;BME280;32048;49.902;22.508;2023-02-20T07:55:22;98994.38;;;8.48;50.59
37634;BME280;32048;49.902;22.508;2023-02-20T07:57:49;98977.25;;;8.36;48.90
37634;BME280;32048;49.902;22.508;2023-02-20T08:00:20;98981.94;;;7.82;50.63
37634;BME280;32048;49.902;22.508;2023-02-20T08:02:47;98964.16;;;7.65;51.70
37634;BME280;32048;49.902;22.508;2023-02-20T08:05:14;98960.63;;;7.66;50.84
37634;BME280;32048;49.902;22.508;2023-02-20T08:07:46;98953.31;;;7.51;51.47
37634;BME280;32048;49.902;22.508;2023-02-20T08:10:16;98954.97;;;7.28;51.25
37634;BME280;32048;49.902;22.508;2023-02-20T08:12:44;98953.75;;;7.39;53.22
37634;BME280;32048;49.902;22.508;2023-02-20T08:15:11;98942.50;;;7.82;53.23
37634;BME280;32048;49.902;22.508;2023-02-20T08:17:39;98946.13;;;8.25;52.05
37634;BME280;32048;49.902;22.508;2023-02-20T08:20:14;98936.34;;;8.93;48.93
37634;BME280;32048;49.902;22.508;2023-02-20T08:22:45;98934.47;;;9.36;47.17
37634;BME280;32048;49.902;22.508;2023-02-20T08:25:13;98925.34;;;9.64;44.59
37634;BME280;32048;49.902;22.508;2023-02-20T08:27:43;98927.72;;;9.31;45.76
37634;BME280;32048;49.902;22.508;2023-02-20T08:30:17;98929.56;;;9.08;45.28
37634;BME280;32048;49.902;22.508;2023-02-20T08:32:44;98926.25;;;8.83;47.16
37634;BME280;32048;49.902;22.508;2023-02-20T08:35:11;98924.38;;;8.86;46.95
37634;BME280;32048;49.902;22.508;2023-02-20T08:37:38;98921.91;;;9.23;47.54
37634;BME280;32048;49.902;22.508;2023-02-20T08:40:06;98931.22;;;9.71;45.77
37634;BME280;32048;49.902;22.508;2023-02-20T08:42:34;98929.59;;;9.48;44.76
37634;BME280;32048;49.902;22.508;2023-02-20T08:45:04;98930.25;;;9.32;46.36
37634;BME280;32048;49.902;22.508;2023-02-20T08:47:32;98932.59;;;9.59;44.93
37634;BME280;32048;49.902;22.508;2023-02-20T08:49:59;98919.88;;;9.69;43.42
37634;BME280;32048;49.902;22.508;2023-02-20T08:52:27;98913.22;;;9.00;46.17
37634;BME280;32048;49.902;22.508;2023-02-20T08:54:54;98912.78;;;8.70;47.13
37634;BME280;32048;49.902;22.508;2023-02-20T08:57:21;98921.50;;;8.26;46.40
37634;BME280;32048;49.902;22.508;2023-02-20T08:59:48;98922.75;;;7.72;49.45
37634;BME280;32048;49.902;22.508;2023-02-20T09:02:18;98919.06;;;7.29;50.31
37634;BME280;32048;49.902;22.508;2023-02-20T09:04:46;98927.19;;;6.98;50.27
37634;BME280;32048;49.902;22.508;2023-02-20T09:07:14;98917.19;;;6.57;52.22
37634;BME280;32048;49.902;22.508;2023-02-20T09:09:41;98914.19;;;6.41;53.41
37634;BME280;32048;49.902;22.508;2023-02-20T09:12:08;98906.75;;;6.01;55.29
37634;BME280;32048;49.902;22.508;2023-02-20T09:14:36;98922.94;;;5.54;57.33
37634;BME280;32048;49.902;22.508;2023-02-20T09:17:04;98914.06;;;5.29;57.43
37634;BME280;32048;49.902;22.508;2023-02-20T09:19:31;98906.97;;;5.01;60.37
37634;BME280;32048;49.902;22.508;2023-02-20T09:21:59;98880.72;;;5.04;60.31
37634;BME280;32048;49.902;22.508;2023-02-20T09:24:26;98862.63;;;5.26;60.97
37634;BME280;32048;49.902;22.508;2023-02-20T09:27:04;98852.94;;;5.59;58.50
37634;BME280;32048;49.902;22.508;2023-02-20T09:29:34;98862.25;;;5.70;59.09
37634;BME280;32048;49.902;22.508;2023-02-20T09:32:06;98838.66;;;5.98;58.18
37634;BME280;32048;49.902;22.508;2023-02-20T09:34:34;98812.47;;;6.50;54.53
37634;BME280;32048;49.902;22.508;2023-02-20T09:37:01;98824.19;;;6.90;53.78
37634;BME280;32048;49.902;22.508;2023-02-20T09:39:28;98827.78;;;7.36;52.18
37634;BME280;32048;49.902;22.508;2023-02-20T09:42:21;98823.44;;;7.80;50.85
37634;BME280;32048;49.902;22.508;2023-02-20T09:50:23;98833.56;;;7.67;49.13
37634;BME280;32048;49.902;22.508;2023-02-20T09:53:03;98822.66;;;7.55;47.92
37634;BME280;32048;49.902;22.508;2023-02-20T09:55:37;98824.03;;;7.65;47.44
37634;BME280;32048;49.902;22.508;2023-02-20T09:58:08;98810.81;;;7.66;48.70
37634;BME280;32048;49.902;22.508;2023-02-20T10:00:42;98808.06;;;7.47;48.62
37634;BME280;32048;49.902;22.508;2023-02-20T10:03:24;98806.28;;;7.01;48.80
37634;BME280;32048;49.902;22.508;2023-02-20T10:05:53;98822.00;;;6.52;50.39
37634;BME280;32048;49.902;22.508;2023-02-20T10:08:22;98817.09;;;6.16;53.03
37634;BME280;32048;49.902;22.508;2023-02-20T10:10:50;98804.25;;;5.80;52.50
37634;BME280;32048;49.902;22.508;2023-02-20T10:13:50;98803.16;;;5.59;53.89
37634;BME280;32048;49.902;22.508;2023-02-20T10:17:06;98791.88;;;5.57;55.45
37634;BME280;32048;49.902;22.508;2023-02-20T10:22:21;98770.81;;;5.32;55.69
37634;BME280;32048;49.902;22.508;2023-02-20T10:30:23;98731.69;;;5.28;54.92
37634;BME280;32048;49.902;22.508;2023-02-20T10:33:17;98729.19;;;5.25;54.09
37634;BME280;32048;49.902;22.508;2023-02-20T10:35:56;98727.41;;;5.25;54.72
37634;BME280;32048;49.902;22.508;2023-02-20T10:38:29;98710.47;;;5.37;55.02
37634;BME280;32048;49.902;22.508;2023-02-20T10:41:17;98723.66;;;5.34;53.46
37634;BME280;32048;49.902;22.508;2023-02-20T10:43:53;98709.59;;;5.08;54.40
37634;BME280;32048;49.902;22.508;2023-02-20T10:46:31;98711.53;;;5.02;54.71
37634;BME280;32048;49.902;22.508;2023-02-20T10:49:22;98693.50;;;4.92;55.34
37634;BME280;32048;49.902;22.508;2023-02-20T10:51:58;98711.16;;;4.86;55.09
37634;BME280;32048;49.902;22.508;2023-02-20T10:54:39;98702.31;;;4.90;55.85
37634;BME280;32048;49.902;22.508;2023-02-20T10:57:19;98696.28;;;4.86;57.20
37634;BME280;32048;49.902;22.508;2023-02-20T11:02:23;98698.41;;;5.03;57.03
37634;BME280;32048;49.902;22.508;2023-02-20T11:04:57;98696.31;;;5.14;58.28
37634;BME280;32048;49.902;22.508;2023-02-20T11:07:27;98705.38;;;5.32;57.84
37634;BME280;32048;49.902;22.508;2023-02-20T11:09:54;98692.13;;;5.37;56.94
37634;BME280;32048;49.902;22.508;2023-02-20T11:14:55;98656.97;;;5.71;56.65
37634;BME280;32048;49.902;22.508;2023-02-20T11:17:26;98658.22;;;5.86;55.75
37634;BME280;32048;49.902;22.508;2023-02-20T11:19:55;98633.22;;;6.02;55.75
37634;BME280;32048;49.902;22.508;2023-02-20T11:25:32;98637.09;;;6.15;56.92
37634;BME280;32048;49.902;22.508;2023-02-20T11:28:22;98623.94;;;6.17;55.28
37634;BME280;32048;49.902;22.508;2023-02-20T11:31:00;98623.06;;;6.16;54.90
37634;BME280;32048;49.902;22.508;2023-02-20T11:33:32;98611.00;;;6.12;56.04
37634;BME280;32048;49.902;22.508;2023-02-20T11:36:13;98615.91;;;5.96;55.92
37634;BME280;32048;49.902;22.508;2023-02-20T11:38:46;98593.59;;;5.84;56.24
37634;BME280;32048;49.902;22.508;2023-02-20T11:41:33;98571.84;;;5.57;58.12
37634;BME280;32048;49.902;22.508;2023-02-20T11:46:36;98572.69;;;5.58;61.58
37634;BME280;32048;49.902;22.508;2023-02-20T11:49:09;98583.56;;;5.47;63.21
37634;BME280;32048;49.902;22.508;2023-02-20T11:51:44;98577.06;;;5.32;66.11
37634;BME280;32048;49.902;22.508;2023-02-20T11:54:22;98555.84;;;5.15;67.92
37634;BME280;32048;49.902;22.508;2023-02-20T11:59:27;98578.84;;;4.77;75.77
37634;BME280;32048;49.902;22.508;2023-02-20T12:02:10;98566.22;;;4.63;77.11
37634;BME280;32048;49.902;22.508;2023-02-20T12:04:38;98563.72;;;4.60;79.69
37634;BME280;32048;49.902;22.508;2023-02-20T12:07:25;98566.81;;;4.43;85.02
37634;BME280;32048;49.902;22.508;2023-02-20T12:09:56;98559.25;;;4.34;85.88
37634;BME280;32048;49.902;22.508;2023-02-20T12:12:29;98535.88;;;4.29;89.23
37634;BME280;32048;49.902;22.508;2023-02-20T12:14:58;98535.34;;;4.18;93.07
37634;BME280;32048;49.902;22.508;2023-02-20T12:17:37;98518.06;;;4.12;94.09
37634;BME280;32048;49.902;22.508;2023-02-20T12:20:17;98516.91;;;3.93;99.15
37634;BME280;32048;49.902;22.508;2023-02-20T12:29:04;98497.00;;;3.59;100.00
37634;BME280;32048;49.902;22.508;2023-02-20T12:37:14;98489.47;;;3.47;100.00
37634;BME280;32048;49.902;22.508;2023-02-20T12:45:25;98474.25;;;3.31;100.00
37634;BME280;32048;49.902;22.508;2023-02-20T12:48:13;98481.25;;;3.29;100.00
37634;BME280;32048;49.902;22.508;2023-02-20T12:50:57;98477.94;;;3.23;100.00
37634;BME280;32048;49.902;22.508;2023-02-20T12:59:25;98469.53;;;3.13;100.00
37634;BME280;32048;49.902;22.508;2023-02-20T13:01:54;98465.34;;;3.07;100.00
37634;BME280;32048;49.902;22.508;2023-02-20T13:04:46;98469.78;;;3.02;100.00
37634;BME280;32048;49.902;22.508;2023-02-20T13:07:22;98441.47;;;2.88;100.00
37634;BME280;32048;49.902;22.508;2023-02-20T13:12:44;98423.53;;;2.42;100.00
37634;BME280;32048;49.902;22.508;2023-02-20T13:20:39;98400.06;;;2.06;100.00
37634;BME280;32048;49.902;22.508;2023-02-20T13:25:44;98367.91;;;2.08;100.00
37634;BME280;32048;49.902;22.508;2023-02-20T13:30:39;98358.47;;;2.03;100.00
37634;BME280;32048;49.902;22.508;2023-02-20T13:33:27;98342.84;;;2.03;100.00
37634;BME280;32048;49.902;22.508;2023-02-20T13:35:55;98324.47;;;2.09;100.00
37634;BME280;32048;49.902;22.508;2023-02-20T13:38:25;98313.00;;;2.16;100.00
37634;BME280;32048;49.902;22.508;2023-02-20T13:46:11;98273.78;;;2.22;100.00
37634;BME280;32048;49.902;22.508;2023-02-20T13:48:46;98255.50;;;2.24;100.00
37634;BME280;32048;49.902;22.508;2023-02-20T13:53:43;98246.31;;;2.42;100.00
37634;BME280;32048;49.902;22.508;2023-02-20T13:56:19;98241.00;;;2.46;100.00
37634;BME280;32048;49.902;22.508;2023-02-20T13:58:48;98234.81;;;2.50;100.00
37634;BME280;32048;49.902;22.508;2023-02-20T14:01:16;98216.50;;;2.54;100.00
37634;BME280;32048;49.902;22.508;2023-02-20T14:03:43;98193.75;;;2.59;100.00
37634;BME280;32048;49.902;22.508;2023-02-20T14:06:13;98179.75;;;2.61;100.00
37634;BME280;32048;49.902;22.508;2023-02-20T14:08:43;98160.56;;;2.64;100.00
37634;BME280;32048;49.902;22.508;2023-02-20T14:11:14;98200.66;;;2.60;100.00
37634;BME280;32048;49.902;22.508;2023-02-20T14:13:49;98199.66;;;2.64;100.00
37634;BME280;32048;49.902;22.508;2023-02-20T14:16:30;98169.31;;;2.63;100.00
37634;BME280;32048;49.902;22.508;2023-02-20T14:19:00;98151.00;;;2.64;100.00
37634;BME280;32048;49.902;22.508;2023-02-20T14:21:28;98149.19;;;2.66;100.00
37634;BME280;32048;49.902;22.508;2023-02-20T14:23:56;98121.19;;;2.73;100.00
37634;BME280;32048;49.902;22.508;2023-02-20T14:26:26;98148.91;;;2.76;100.00
37634;BME280;32048;49.902;22.508;2023-02-20T14:28:56;98133.19;;;2.79;100.00
37634;BME280;32048;49.902;22.508;2023-02-20T14:31:26;98141.75;;;2.82;100.00
37634;BME280;32048;49.902;22.508;2023-02-20T14:33:56;98155.56;;;2.86;100.00
37634;BME280;32048;49.902;22.508;2023-02-20T14:36:42;98127.59;;;2.91;100.00
37634;BME280;32048;49.902;22.508;2023-02-20T14:42:15;98110.75;;;3.01;100.00
37634;BME280;32048;49.902;22.508;2023-02-20T14:44:47;98117.78;;;2.99;100.00
37634;BME280;32048;49.902;22.508;2023-02-20T14:47:17;98100.13;;;3.07;100.00
37634;BME280;32048;49.902;22.508;2023-02-20T14:49:44;98083.28;;;3.18;100.00
37634;BME280;32048;49.902;22.508;2023-02-20T14:52:19;98094.34;;;3.24;100.00
37634;BME280;32048;49.902;22.508;2023-02-20T14:54:59;98093.31;;;3.30;100.00
37634;BME280;32048;49.902;22.508;2023-02-20T14:57:26;98074.72;;;3.39;100.00
37634;BME280;32048;49.902;22.508;2023-02-20T15:02:44;98070.72;;;3.54;100.00
37634;BME280;32048;49.902;22.508;2023-02-20T15:05:16;98046.06;;;3.63;100.00
37634;BME280;32048;49.902;22.508;2023-02-20T15:07:45;98030.13;;;3.70;100.00
37634;BME280;32048;49.902;22.508;2023-02-20T15:10:35;98018.72;;;3.73;100.00
37634;BME280;32048;49.902;22.508;2023-02-20T15:13:12;98038.81;;;3.71;100.00